KBIL/BIL METAR and TAF weather

Enter ICAO airport designator
Station Type Date Time Source
KBIL METAR 2019/12/16 02:53 UTC NOAA

KBIL 160253Z 24006KT 10SM FEW075 BKN100 M01/M08 A2992 RMK AO2 SLP168 T10111078 51010


Station Type Date Time Source
KBIL Decoded METAR 2019/12/16 02:53 UTC NOAA

LOGAN INTERNATIONAL AIRPORT, MT, United States (KBIL) 45-49N 108-33W 1091M
Dec 15, 2019 - 09:53 PM EST / 2019.12.16 0253 UTC
Wind: from the WSW (240 degrees) at 7 MPH (6 KT):0
Visibility: 10 mile(s):0
Sky conditions: mostly cloudy
Temperature: 30.0 F (-1.1 C)
Windchill: 23 F (-5 C):1
Dew Point: 18.0 F (-7.8 C)
Relative Humidity: 60%
Pressure (altimeter): 29.92 in. Hg (1013 hPa)
Pressure tendency: 0.03 inches (1.0 hPa) higher than three hours ago
ob: KBIL 160253Z 24006KT 10SM FEW075 BKN100 M01/M08 A2992 RMK AO2 SLP168 T10111078 51010
cycle: 3

Station Type Date Time Source
KBIL TAF 2019/12/15 18:33 UTC NOAA

TAF KBIL 151730Z 1518/1618 24011KT P6SM BKN070
FM161500 25014G21KT P6SM BKN200

Example: see airport list